Terminal Aerodrome Forecast
Issued by NWS Jackson, MS

Home | Current Version | Previous Version | Text Only | Print | Product List | Glossary On
Versions: 1 2 3 4 5 6 7 8 9 10 11 12 13 14
000
FTUS44 KJAN 250842 AAA
TAFMEI
TAF AMD
KMEI 250842Z 2509/2606 16008KT 6SM -SHRA VCTS SCT015CB OVC060
     FM251000 15008KT 4SM -SHRA BR OVC007
     FM251500 16011KT P6SM VCTS BKN030CB OVC050=

USA.gov is the U.S. government's official web portal to all federal, state and local government web resources and services.